Capt. Frank Banta Jr — WDH6399 — position and weather

sailwx.info

Track history (hours):
 
Tides and Currents Weather Stations Pressure Air Temp Water Temp Dewpoint Dewpoint Depression Visibility Wind Speed Wind Dir Waves Ship Positions

Capt. Frank Banta Jr

Owner: Chem Carriers Towing, LLC, Sunshine, LA. More information available from US FCC via Universal Licensing System and Coast Guard Vessel Documentation Center.

Last reported at 2018-Feb-24 06:30 UTC. Time now 2018-Feb-24 06:47 UTC.
Position N 30°05' W 093°20'.

Length 27 m.

Type: Tug. MMSI: 367637540.

Date/timePositionNaut miles runAvg speedWind from/ knotsBaromVisibWave heightAir tempDewpointWater temp
2018-Feb-24 06:30N 30°05' W 093°20'0 0.0
2018-Feb-24 06:00N 30°05' W 093°20'0 0.0
2018-Feb-24 05:30N 30°05' W 093°20'0 0.0
2018-Feb-24 05:00N 30°05' W 093°20'0 0.0
2018-Feb-24 04:30N 30°05' W 093°20'0 0.1
2018-Feb-24 04:00N 30°05' W 093°20'1 2.9
2018-Feb-24 03:30N 30°06' W 093°19'1 2.8
2018-Feb-24 03:00N 30°05' W 093°18'1 1.0
2018-Feb-24 02:30N 30°05' W 093°17'2 3.1
2018-Feb-24 02:00N 30°04' W 093°16'0 0.3
2018-Feb-24 01:30N 30°04' W 093°16'0 0.0
2018-Feb-24 01:00N 30°04' W 093°16'1 1.5
2018-Feb-24 00:18N 30°03' W 093°16'1 1.2
2018-Feb-23 23:51N 30°02' W 093°15'2 5.3
2018-Feb-23 23:27N 30°00' W 093°14'46 4.7
2018-Feb-23 13:32N 29°51' W 092°22'0 4.9
2018-Feb-23 13:30N 29°51' W 092°21'3 5.2
2018-Feb-23 13:00N 29°50' W 092°18'3 5.0
2018-Feb-23 12:30N 29°49' W 092°16'3 5.4
2018-Feb-23 12:00N 29°48' W 092°13'3 5.0
2018-Feb-23 11:30N 29°47' W 092°11'1 1.7
2018-Feb-23 11:00N 29°47' W 092°10'0 0.0
2018-Feb-23 10:30N 29°47' W 092°10'0 0.0
2018-Feb-23 10:00N 29°47' W 092°10'2 3.5
2018-Feb-23 09:30N 29°47' W 092°08'3 5.2
2018-Feb-23 09:00N 29°48' W 092°05'3 5.5
2018-Feb-23 08:28N 29°49' W 092°02'0 0.1
2018-Feb-23 08:00N 29°49' W 092°02'3 5.3
2018-Feb-23 07:26N 29°50' W 091°59'61 4.7
2018-Feb-22 18:31N 29°32' W 090°51'1 5.7
2018-Feb-22 18:24N 29°32' W 090°51'2 5.8
2018-Feb-22 17:59N 29°32' W 090°48'3 4.9
2018-Feb-22 17:21N 29°34' W 090°45'2 5.0
2018-Feb-22 16:57N 29°35' W 090°43'2 4.5
2018-Feb-22 16:30N 29°37' W 090°42'1 1.0
2018-Feb-22 16:00N 29°37' W 090°41'1 1.1
2018-Feb-22 15:30N 29°36' W 090°41'0 0.0
2018-Feb-22 15:00N 29°36' W 090°41'0 0.0
2018-Feb-22 14:29N 29°36' W 090°41'0 0.0
2018-Feb-22 14:00N 29°36' W 090°41'0 0.0
2018-Feb-22 13:30N 29°36' W 090°41'2 4.4
2018-Feb-22 13:00N 29°35' W 090°39'3 5.4
2018-Feb-22 12:30N 29°35' W 090°35'3 5.6
2018-Feb-22 12:00N 29°34' W 090°33'3 5.7
2018-Feb-22 11:26N 29°34' W 090°29'  
Track history (hours):
 
Tides and Currents Weather Stations Pressure Air Temp Water Temp Dewpoint Dewpoint Depression Visibility Wind Speed Wind Dir Waves Ship Positions

Capt. Frank Banta Jr

Owner: Chem Carriers Towing, LLC, Sunshine, LA. More information available from US FCC via Universal Licensing System and Coast Guard Vessel Documentation Center.

Last reported at 2018-Feb-24 06:30 UTC. Time now 2018-Feb-24 06:47 UTC.
Position N 30°05' W 093°20'.

Length 27 m.

Type: Tug. MMSI: 367637540.

Date/timePositionNaut miles runAvg speedWind from/ knotsBaromVisibWave heightAir tempDewpointWater temp
2018-Feb-24 06:30N 30°05' W 093°20'0 0.0
2018-Feb-24 06:00N 30°05' W 093°20'0 0.0
2018-Feb-24 05:30N 30°05' W 093°20'0 0.0
2018-Feb-24 05:00N 30°05' W 093°20'0 0.0
2018-Feb-24 04:30N 30°05' W 093°20'0 0.1
2018-Feb-24 04:00N 30°05' W 093°20'1 2.9
2018-Feb-24 03:30N 30°06' W 093°19'1 2.8
2018-Feb-24 03:00N 30°05' W 093°18'1 1.0
2018-Feb-24 02:30N 30°05' W 093°17'2 3.1
2018-Feb-24 02:00N 30°04' W 093°16'0 0.3
2018-Feb-24 01:30N 30°04' W 093°16'0 0.0
2018-Feb-24 01:00N 30°04' W 093°16'1 1.5
2018-Feb-24 00:18N 30°03' W 093°16'1 1.2
2018-Feb-23 23:51N 30°02' W 093°15'2 5.3
2018-Feb-23 23:27N 30°00' W 093°14'46 4.7
2018-Feb-23 13:32N 29°51' W 092°22'0 4.9
2018-Feb-23 13:30N 29°51' W 092°21'3 5.2
2018-Feb-23 13:00N 29°50' W 092°18'3 5.0
2018-Feb-23 12:30N 29°49' W 092°16'3 5.4
2018-Feb-23 12:00N 29°48' W 092°13'3 5.0
2018-Feb-23 11:30N 29°47' W 092°11'1 1.7
2018-Feb-23 11:00N 29°47' W 092°10'0 0.0
2018-Feb-23 10:30N 29°47' W 092°10'0 0.0
2018-Feb-23 10:00N 29°47' W 092°10'2 3.5
2018-Feb-23 09:30N 29°47' W 092°08'3 5.2
2018-Feb-23 09:00N 29°48' W 092°05'3 5.5
2018-Feb-23 08:28N 29°49' W 092°02'0 0.1
2018-Feb-23 08:00N 29°49' W 092°02'3 5.3
2018-Feb-23 07:26N 29°50' W 091°59'61 4.7
2018-Feb-22 18:31N 29°32' W 090°51'1 5.7
2018-Feb-22 18:24N 29°32' W 090°51'2 5.8
2018-Feb-22 17:59N 29°32' W 090°48'3 4.9
2018-Feb-22 17:21N 29°34' W 090°45'2 5.0
2018-Feb-22 16:57N 29°35' W 090°43'2 4.5
2018-Feb-22 16:30N 29°37' W 090°42'1 1.0
2018-Feb-22 16:00N 29°37' W 090°41'1 1.1
2018-Feb-22 15:30N 29°36' W 090°41'0 0.0
2018-Feb-22 15:00N 29°36' W 090°41'0 0.0
2018-Feb-22 14:29N 29°36' W 090°41'0 0.0
2018-Feb-22 14:00N 29°36' W 090°41'0 0.0
2018-Feb-22 13:30N 29°36' W 090°41'2 4.4
2018-Feb-22 13:00N 29°35' W 090°39'3 5.4
2018-Feb-22 12:30N 29°35' W 090°35'3 5.6
2018-Feb-22 12:00N 29°34' W 090°33'3 5.7
2018-Feb-22 11:26N 29°34' W 090°29'  

Dump ship's entire track history